Air Navigation Services of Czech Republic
Airport: LKNA Updated:  03.10.2022 11:59:33  UTC
 METAR LKNA 03.10. 12:00 ...
METAR LKNA 031200Z 31020KT 9999 BKN031 12/07 Q1021 NOSIG RMK BLU BLU=
 TAF LKNA 03.10. 11:00 ...
TAF LKNA 031100Z 0312/0412 30018G30KT 9999 SCT030      PROB30 TEMPO 0312/0408 7000 SHRA BKN025      BECMG 0320/0322 31014G24KT=